createdAt,value
2018-08-30T00:01:53.654Z,18.60
2018-08-30T00:04:22.471Z,18.60
2018-08-30T00:06:51.331Z,18.60
2018-08-30T00:09:20.180Z,18.60
2018-08-30T00:11:49.019Z,18.60
2018-08-30T00:14:17.860Z,18.60
2018-08-30T00:16:46.675Z,18.60
2018-08-30T00:19:15.667Z,18.60
2018-08-30T00:21:44.483Z,18.60
2018-08-30T00:24:13.318Z,18.50
2018-08-30T00:26:42.197Z,18.50
2018-08-30T00:29:11.000Z,18.40
2018-08-30T00:31:39.855Z,18.40
2018-08-30T00:34:08.670Z,18.40
2018-08-30T00:36:37.488Z,18.40
2018-08-30T00:39:07.943Z,18.40
2018-08-30T00:41:36.922Z,18.40
2018-08-30T00:44:05.866Z,18.40
2018-08-30T00:46:34.705Z,18.40
2018-08-30T00:49:03.555Z,18.40
2018-08-30T00:51:32.387Z,18.40
2018-08-30T00:54:01.204Z,18.40
2018-08-30T00:56:30.059Z,18.40
2018-08-30T00:58:58.903Z,18.30
2018-08-30T01:01:27.738Z,18.20
2018-08-30T01:03:56.566Z,18.20
2018-08-30T01:06:25.575Z,18.20
2018-08-30T01:08:54.363Z,18.20
2018-08-30T01:11:23.191Z,18.20
2018-08-30T01:13:52.060Z,18.20
2018-08-30T01:16:21.002Z,18.20
2018-08-30T01:18:50.773Z,18.20
2018-08-30T01:21:20.311Z,18.20
2018-08-30T01:23:49.212Z,18.30
2018-08-30T01:26:18.065Z,18.30
2018-08-30T01:28:46.895Z,18.30
2018-08-30T01:31:15.836Z,18.30
2018-08-30T01:33:44.704Z,18.30
2018-08-30T01:36:13.565Z,18.30
2018-08-30T01:38:42.450Z,18.30
2018-08-30T01:41:11.451Z,18.20
2018-08-30T01:43:40.279Z,18.20
2018-08-30T01:46:09.099Z,18.30
2018-08-30T01:48:37.938Z,18.20
2018-08-30T01:51:06.751Z,18.20
2018-08-30T01:53:35.562Z,18.20
2018-08-30T01:56:04.611Z,18.20
2018-08-30T01:58:33.430Z,18.20
2018-08-30T02:01:02.251Z,18.20
2018-08-30T02:03:31.148Z,18.20
2018-08-30T02:05:59.963Z,18.10
2018-08-30T02:08:28.827Z,18.10
2018-08-30T02:10:57.651Z,18.00
2018-08-30T02:13:26.568Z,17.90
2018-08-30T02:15:55.408Z,17.80
2018-08-30T02:18:24.244Z,17.90
2018-08-30T02:20:53.080Z,17.90
2018-08-30T02:23:21.948Z,17.90
2018-08-30T02:25:50.907Z,17.80
2018-08-30T02:28:19.690Z,17.80
2018-08-30T02:30:48.591Z,17.80
2018-08-30T02:33:17.451Z,17.90
2018-08-30T02:35:46.371Z,17.90
2018-08-30T02:38:15.240Z,17.80
2018-08-30T02:40:44.073Z,17.80
2018-08-30T02:43:12.903Z,17.90
2018-08-30T02:45:41.768Z,17.90
2018-08-30T02:48:10.579Z,17.80
2018-08-30T02:50:39.420Z,17.80
2018-08-30T02:53:08.283Z,17.80
2018-08-30T02:55:37.160Z,17.80
2018-08-30T02:58:05.986Z,17.80
2018-08-30T03:00:34.819Z,17.60
2018-08-30T03:03:03.643Z,17.60
2018-08-30T03:05:32.472Z,17.60
2018-08-30T03:08:01.304Z,17.60
2018-08-30T03:10:30.126Z,17.60
2018-08-30T03:12:58.958Z,17.70
2018-08-30T03:15:27.797Z,17.70
2018-08-30T03:17:56.694Z,17.80
2018-08-30T03:20:25.687Z,17.80
2018-08-30T03:22:54.557Z,17.80
2018-08-30T03:25:23.387Z,17.70
2018-08-30T03:27:52.218Z,17.70
2018-08-30T03:30:21.159Z,17.80
2018-08-30T03:32:49.967Z,17.70
2018-08-30T03:35:18.791Z,17.70
2018-08-30T03:37:47.610Z,17.70
2018-08-30T03:40:16.425Z,17.70
2018-08-30T03:42:45.263Z,17.70
2018-08-30T03:45:14.155Z,17.60
2018-08-30T03:49:07.476Z,17.70
2018-08-30T03:51:36.329Z,17.60
2018-08-30T03:54:05.247Z,17.50
2018-08-30T03:56:34.074Z,17.50
2018-08-30T03:59:03.036Z,17.50
2018-08-30T04:01:31.947Z,17.50
2018-08-30T04:04:01.251Z,17.50
2018-08-30T04:06:30.108Z,17.50
2018-08-30T04:08:58.961Z,17.40
2018-08-30T04:11:27.867Z,17.30
2018-08-30T04:13:56.705Z,17.30
2018-08-30T04:16:25.551Z,17.30
2018-08-30T04:19:01.883Z,17.30
2018-08-30T04:21:30.707Z,17.30
2018-08-30T04:24:00.016Z,17.30
2018-08-30T04:26:28.980Z,17.30
2018-08-30T04:28:57.899Z,17.40
2018-08-30T04:31:27.053Z,17.30
2018-08-30T04:33:55.860Z,17.30
2018-08-30T04:36:25.321Z,17.40
2018-08-30T04:38:54.930Z,17.40
2018-08-30T04:41:23.755Z,17.30
2018-08-30T04:43:52.588Z,17.30
2018-08-30T04:46:21.467Z,17.20
2018-08-30T04:48:50.316Z,17.20
2018-08-30T04:51:19.167Z,17.20
2018-08-30T04:53:47.983Z,17.20
2018-08-30T04:56:16.806Z,17.30
2018-08-30T04:58:45.670Z,17.40
2018-08-30T05:01:14.506Z,17.30
2018-08-30T05:03:43.328Z,17.40
2018-08-30T05:06:12.156Z,17.30
2018-08-30T05:08:40.987Z,17.30
2018-08-30T05:11:09.808Z,17.40
2018-08-30T05:13:38.626Z,17.40
2018-08-30T05:16:07.471Z,17.40
2018-08-30T05:18:36.330Z,17.40
2018-08-30T05:21:05.254Z,17.50
2018-08-30T05:23:34.114Z,17.50
2018-08-30T05:26:02.919Z,17.60
2018-08-30T05:28:31.754Z,17.60
2018-08-30T05:31:00.607Z,17.70
2018-08-30T05:33:29.415Z,17.80
2018-08-30T05:35:58.269Z,17.80
2018-08-30T05:38:27.184Z,17.90
2018-08-30T05:40:56.001Z,17.90
2018-08-30T05:43:24.787Z,18.00
2018-08-30T05:45:53.608Z,18.10
2018-08-30T05:48:22.474Z,18.10
2018-08-30T05:50:51.307Z,18.10
2018-08-30T05:53:20.469Z,18.20
2018-08-30T05:55:49.375Z,18.30
2018-08-30T05:58:18.242Z,18.30
2018-08-30T06:00:47.121Z,18.40
2018-08-30T06:03:15.965Z,18.30
2018-08-30T06:05:44.787Z,18.40
2018-08-30T06:08:13.642Z,18.40
2018-08-30T06:10:42.542Z,18.50
2018-08-30T06:13:11.416Z,18.50
2018-08-30T06:15:40.219Z,18.50
2018-08-30T06:18:09.071Z,18.60
2018-08-30T06:20:37.928Z,18.70
2018-08-30T06:23:06.819Z,18.70
2018-08-30T06:25:35.644Z,18.70
2018-08-30T06:28:04.650Z,18.80
2018-08-30T06:30:33.463Z,18.80
2018-08-30T06:33:02.302Z,18.90
2018-08-30T06:35:31.122Z,18.90
2018-08-30T06:38:00.051Z,19.00
2018-08-30T06:40:28.862Z,19.00
2018-08-30T06:42:57.693Z,19.10
2018-08-30T06:45:26.709Z,19.00
2018-08-30T06:47:55.491Z,19.00
2018-08-30T06:50:24.299Z,19.10
2018-08-30T06:52:53.119Z,19.10
2018-08-30T06:55:21.983Z,19.10
2018-08-30T06:57:50.821Z,19.10
2018-08-30T07:00:26.455Z,19.10
2018-08-30T07:02:55.314Z,19.10
2018-08-30T07:05:24.195Z,19.20
2018-08-30T07:07:53.067Z,19.10
2018-08-30T07:10:22.061Z,19.30
2018-08-30T07:12:50.874Z,19.30
2018-08-30T07:15:19.760Z,19.40
2018-08-30T07:17:48.722Z,19.50
2018-08-30T07:20:17.652Z,19.50
2018-08-30T07:22:46.475Z,19.40
2018-08-30T07:25:15.343Z,19.50
2018-08-30T07:27:44.160Z,19.50
2018-08-30T07:30:14.163Z,19.50
2018-08-30T07:32:43.420Z,19.50
2018-08-30T07:35:12.389Z,19.60
2018-08-30T07:37:41.138Z,19.60
2018-08-30T07:40:09.995Z,19.70
2018-08-30T07:42:38.840Z,19.70
2018-08-30T07:45:07.688Z,19.80
2018-08-30T07:47:36.519Z,19.80
2018-08-30T07:50:05.854Z,19.90
2018-08-30T07:52:34.662Z,19.90
2018-08-30T07:55:03.547Z,20.00
2018-08-30T07:57:32.495Z,20.00
2018-08-30T08:00:01.340Z,20.10
2018-08-30T08:02:30.139Z,20.10
2018-08-30T08:04:58.967Z,20.20
2018-08-30T08:07:27.894Z,20.30
2018-08-30T08:09:56.990Z,20.40
2018-08-30T08:12:25.883Z,20.50
2018-08-30T08:14:54.687Z,20.50
2018-08-30T08:17:23.526Z,20.60
2018-08-30T08:19:53.479Z,20.60
2018-08-30T08:22:22.278Z,20.70
2018-08-30T08:24:51.129Z,20.90
2018-08-30T08:27:19.934Z,21.00
2018-08-30T08:29:48.743Z,21.10
2018-08-30T08:32:17.583Z,21.10
2018-08-30T08:34:46.414Z,21.10
2018-08-30T08:37:15.280Z,21.10
2018-08-30T08:39:44.123Z,21.20
2018-08-30T08:42:13.016Z,21.20
2018-08-30T08:44:41.875Z,21.30
2018-08-30T08:47:10.710Z,21.40
2018-08-30T08:49:39.690Z,21.50
2018-08-30T08:52:08.571Z,21.70
2018-08-30T08:54:37.395Z,21.80
2018-08-30T08:57:06.283Z,21.80
2018-08-30T08:59:35.079Z,21.90
2018-08-30T09:02:03.918Z,22.10
2018-08-30T09:04:32.818Z,22.20
2018-08-30T09:07:01.688Z,22.20
2018-08-30T09:09:30.509Z,22.20
2018-08-30T09:11:59.339Z,22.20
2018-08-30T09:14:28.241Z,22.40
2018-08-30T09:16:57.030Z,22.50
2018-08-30T09:19:25.874Z,22.70
2018-08-30T09:21:54.739Z,22.80
2018-08-30T09:24:23.567Z,22.90
2018-08-30T09:26:52.474Z,22.80
2018-08-30T09:29:21.270Z,22.90
2018-08-30T09:31:50.123Z,22.90
2018-08-30T09:34:18.946Z,23.00
2018-08-30T09:36:47.774Z,23.10
2018-08-30T09:39:16.683Z,23.10
2018-08-30T09:41:45.520Z,23.10
2018-08-30T09:44:14.362Z,23.20
2018-08-30T09:46:43.240Z,23.20
2018-08-30T09:49:12.113Z,23.20
2018-08-30T09:51:40.935Z,23.30
2018-08-30T09:54:09.755Z,23.40
2018-08-30T09:56:38.665Z,23.70
2018-08-30T09:59:07.520Z,24.00
2018-08-30T10:01:41.874Z,24.00
2018-08-30T10:04:10.703Z,24.20
2018-08-30T10:06:39.556Z,24.30
2018-08-30T10:09:10.086Z,24.40
2018-08-30T10:11:39.501Z,24.60
2018-08-30T10:14:08.803Z,24.60
2018-08-30T10:16:37.646Z,24.80
2018-08-30T10:19:06.511Z,24.90
2018-08-30T10:21:35.461Z,25.00
2018-08-30T10:24:04.280Z,25.00
2018-08-30T10:26:33.134Z,25.10
2018-08-30T10:29:01.972Z,25.10
2018-08-30T10:31:30.897Z,25.10
2018-08-30T10:33:59.687Z,25.20
2018-08-30T10:36:28.563Z,25.20
2018-08-30T10:38:57.412Z,25.40
2018-08-30T10:41:26.247Z,25.70
2018-08-30T10:43:55.088Z,25.80
2018-08-30T10:46:23.911Z,25.80
2018-08-30T10:48:53.171Z,26.10
2018-08-30T10:51:21.991Z,26.10
2018-08-30T10:53:50.869Z,26.20
2018-08-30T10:56:19.744Z,26.30
2018-08-30T10:58:48.623Z,26.40
2018-08-30T11:01:17.471Z,26.60
2018-08-30T11:03:46.502Z,26.80
2018-08-30T11:06:15.480Z,26.80
2018-08-30T11:08:44.330Z,26.60
2018-08-30T11:11:13.159Z,26.70
2018-08-30T11:13:42.077Z,26.70
2018-08-30T11:16:10.887Z,26.70
2018-08-30T11:18:39.739Z,26.70
2018-08-30T11:21:08.576Z,26.70
2018-08-30T11:23:37.728Z,26.70
2018-08-30T11:26:06.571Z,26.70
2018-08-30T11:28:35.412Z,26.60
2018-08-30T11:31:04.296Z,26.60
2018-08-30T11:33:33.226Z,26.60
2018-08-30T11:36:02.063Z,26.60
2018-08-30T11:38:30.986Z,26.70
2018-08-30T11:40:59.827Z,26.80
2018-08-30T11:43:28.746Z,26.80
2018-08-30T11:45:57.743Z,26.80
2018-08-30T11:48:26.946Z,26.80
2018-08-30T11:50:55.916Z,26.80
2018-08-30T11:53:24.799Z,26.70
2018-08-30T11:55:53.623Z,26.70
2018-08-30T11:58:22.732Z,26.70
2018-08-30T12:00:51.618Z,26.70
2018-08-30T12:03:21.615Z,26.60
2018-08-30T12:05:51.279Z,26.60
2018-08-30T12:08:20.324Z,26.60
2018-08-30T12:10:49.194Z,26.70
2018-08-30T12:13:17.963Z,26.70
2018-08-30T12:15:46.795Z,26.70
2018-08-30T12:18:15.704Z,26.70
2018-08-30T12:20:44.565Z,26.70
2018-08-30T12:23:13.391Z,26.60
2018-08-30T12:25:42.395Z,26.60
2018-08-30T12:28:11.259Z,26.60
2018-08-30T12:30:40.272Z,26.60
2018-08-30T12:33:09.125Z,26.70
2018-08-30T12:35:38.054Z,26.70
2018-08-30T12:38:06.864Z,26.70
2018-08-30T12:40:35.764Z,26.80
2018-08-30T12:43:05.371Z,26.80
2018-08-30T12:45:34.157Z,27.10
2018-08-30T12:48:03.037Z,27.40
2018-08-30T12:50:31.961Z,27.40
2018-08-30T12:53:00.778Z,27.40
2018-08-30T12:55:29.574Z,27.30
2018-08-30T12:57:58.412Z,27.20
2018-08-30T13:00:34.258Z,27.10
2018-08-30T13:03:03.104Z,27.10
2018-08-30T13:05:32.151Z,27.10
2018-08-30T13:08:00.821Z,27.10
2018-08-30T13:10:29.743Z,26.90
2018-08-30T13:12:58.693Z,27.00
2018-08-30T13:15:27.539Z,26.90
2018-08-30T13:17:56.421Z,26.90
2018-08-30T13:20:25.384Z,27.20
2018-08-30T13:22:54.375Z,27.00
2018-08-30T13:25:23.130Z,26.90
2018-08-30T13:27:51.965Z,26.90
2018-08-30T13:30:20.924Z,26.80
2018-08-30T13:32:49.815Z,26.90
2018-08-30T13:35:18.611Z,27.00
2018-08-30T13:37:47.882Z,27.10
2018-08-30T13:40:16.443Z,27.00
2018-08-30T13:42:45.439Z,27.00
2018-08-30T13:45:14.145Z,27.00
2018-08-30T13:47:42.823Z,27.00
2018-08-30T13:50:11.903Z,26.90
2018-08-30T13:52:40.855Z,26.80
2018-08-30T13:55:09.564Z,26.80
2018-08-30T13:57:38.848Z,26.70
2018-08-30T14:00:07.616Z,27.00
2018-08-30T14:02:36.102Z,27.10
2018-08-30T14:05:05.062Z,27.20
2018-08-30T14:07:33.845Z,27.50
2018-08-30T14:10:02.975Z,27.70
2018-08-30T14:12:31.741Z,28.10
2018-08-30T14:15:00.438Z,28.50
2018-08-30T14:17:29.016Z,28.80
2018-08-30T14:19:57.879Z,29.00
2018-08-30T14:22:26.690Z,29.10
2018-08-30T14:24:55.691Z,29.40
2018-08-30T14:27:24.477Z,29.40
2018-08-30T14:29:53.288Z,29.40
2018-08-30T14:32:22.205Z,29.50
2018-08-30T14:34:50.987Z,29.60
2018-08-30T14:37:19.894Z,29.60
2018-08-30T14:39:48.684Z,29.60
2018-08-30T14:42:17.624Z,29.70
2018-08-30T14:44:46.432Z,29.60
2018-08-30T14:47:15.299Z,29.70
2018-08-30T14:49:44.123Z,29.70
2018-08-30T14:52:12.983Z,29.60
2018-08-30T14:54:41.855Z,29.40
2018-08-30T14:57:10.729Z,29.30
2018-08-30T14:59:39.551Z,29.20
2018-08-30T15:02:08.407Z,29.20
2018-08-30T15:04:37.277Z,29.10
2018-08-30T15:07:06.339Z,28.90
2018-08-30T15:09:35.192Z,28.70
2018-08-30T15:12:04.035Z,28.60
2018-08-30T15:14:33.031Z,28.30
2018-08-30T15:17:01.827Z,28.40
2018-08-30T15:19:30.727Z,28.60
2018-08-30T15:21:59.629Z,28.50
2018-08-30T15:24:28.464Z,28.50
2018-08-30T15:26:57.607Z,28.40
2018-08-30T15:29:26.377Z,28.40
2018-08-30T15:31:55.244Z,28.30
2018-08-30T15:34:24.143Z,27.90
2018-08-30T15:36:53.071Z,27.80
2018-08-30T15:39:22.033Z,27.80
2018-08-30T15:41:50.928Z,27.80
2018-08-30T15:44:19.928Z,27.60
2018-08-30T15:46:48.844Z,27.50
2018-08-30T15:49:17.787Z,27.50
2018-08-30T15:51:46.680Z,27.40
2018-08-30T15:54:15.533Z,27.40
2018-08-30T15:56:44.470Z,27.20
2018-08-30T15:59:13.418Z,27.10
2018-08-30T16:01:42.896Z,27.00
2018-08-30T16:04:14.753Z,27.00
2018-08-30T16:06:43.727Z,26.90
2018-08-30T16:09:12.884Z,26.70
2018-08-30T16:11:41.948Z,26.40
2018-08-30T16:14:10.807Z,26.20
2018-08-30T16:16:40.324Z,26.00
2018-08-30T16:19:09.187Z,25.60
2018-08-30T16:21:38.139Z,25.50
2018-08-30T16:24:07.060Z,25.30
2018-08-30T16:26:35.907Z,25.20
2018-08-30T16:29:04.788Z,25.00
2018-08-30T16:31:33.663Z,24.80
2018-08-30T16:34:02.526Z,24.60
2018-08-30T16:36:31.419Z,24.40
2018-08-30T16:39:00.339Z,24.30
2018-08-30T16:41:29.203Z,24.10
2018-08-30T16:43:58.087Z,24.00
2018-08-30T16:46:26.954Z,23.80
2018-08-30T16:48:56.027Z,23.70
2018-08-30T16:51:24.770Z,23.70
2018-08-30T16:53:54.222Z,23.60
2018-08-30T16:56:23.282Z,23.50
2018-08-30T16:58:52.236Z,23.40
2018-08-30T17:01:21.143Z,23.50
2018-08-30T17:03:50.195Z,23.40
2018-08-30T17:06:19.190Z,23.30
2018-08-30T17:08:48.631Z,23.30
2018-08-30T17:11:17.561Z,23.20
2018-08-30T17:13:46.467Z,23.10
2018-08-30T17:16:15.370Z,23.10
2018-08-30T17:18:47.836Z,23.00
2018-08-30T17:21:16.690Z,22.90
2018-08-30T17:23:45.533Z,22.80
2018-08-30T17:26:14.439Z,22.70
2018-08-30T17:28:43.419Z,22.60
2018-08-30T17:31:12.319Z,22.50
2018-08-30T17:33:41.207Z,22.40
2018-08-30T17:36:10.054Z,22.30
2018-08-30T17:38:39.412Z,22.20
2018-08-30T17:41:08.689Z,22.10
2018-08-30T17:43:37.852Z,22.00
2018-08-30T17:46:07.203Z,21.90
2018-08-30T17:48:36.256Z,21.80
2018-08-30T17:51:05.663Z,21.70
2018-08-30T17:53:34.899Z,21.60
2018-08-30T17:56:03.965Z,21.40
2018-08-30T17:58:32.891Z,21.40
2018-08-30T18:01:02.264Z,21.40
2018-08-30T18:03:31.527Z,21.30
2018-08-30T18:06:00.778Z,21.20
2018-08-30T18:08:30.112Z,21.20
2018-08-30T18:10:59.338Z,21.20
2018-08-30T18:13:28.471Z,21.20
2018-08-30T18:15:57.599Z,21.20
2018-08-30T18:18:26.915Z,21.10
2018-08-30T18:20:56.258Z,21.10
2018-08-30T18:23:25.820Z,21.10
2018-08-30T18:25:54.985Z,21.00
2018-08-30T18:28:24.160Z,20.90
2018-08-30T18:30:52.929Z,20.90
2018-08-30T18:33:21.924Z,20.80
2018-08-30T18:35:50.776Z,20.70
2018-08-30T18:38:19.801Z,20.70
2018-08-30T18:40:48.927Z,20.60
2018-08-30T18:43:19.652Z,20.50
2018-08-30T18:45:49.020Z,20.50
2018-08-30T18:48:18.795Z,20.50
2018-08-30T18:50:48.346Z,20.50
2018-08-30T18:53:17.319Z,20.50
2018-08-30T18:55:47.669Z,20.40
2018-08-30T18:58:16.686Z,20.40
2018-08-30T19:00:45.719Z,20.40
2018-08-30T19:03:14.741Z,20.40
2018-08-30T19:05:44.144Z,20.40
2018-08-30T19:08:13.353Z,20.40
2018-08-30T19:10:43.064Z,20.40
2018-08-30T19:13:12.062Z,20.40
2018-08-30T19:15:46.905Z,20.30
2018-08-30T19:18:21.517Z,20.30
2018-08-30T19:20:50.502Z,20.20
2018-08-30T19:23:19.519Z,20.30
2018-08-30T19:25:48.560Z,20.30
2018-08-30T19:28:18.552Z,20.30
2018-08-30T19:30:47.963Z,20.30
2018-08-30T19:33:17.316Z,20.20
2018-08-30T19:35:52.189Z,20.20
2018-08-30T19:38:21.265Z,20.20
2018-08-30T19:40:56.103Z,20.20
2018-08-30T19:43:26.502Z,20.20
2018-08-30T19:45:56.553Z,20.10
2018-08-30T19:48:27.018Z,20.00
2018-08-30T19:50:56.778Z,20.00
2018-08-30T19:53:26.426Z,19.90
2018-08-30T19:55:55.682Z,19.90
2018-08-30T19:58:25.084Z,19.90
2018-08-30T20:00:54.887Z,19.90
2018-08-30T20:03:24.502Z,19.80
2018-08-30T20:05:54.328Z,19.90
2018-08-30T20:08:23.283Z,19.80
2018-08-30T20:10:52.601Z,19.90
2018-08-30T20:13:21.468Z,19.90
2018-08-30T20:15:50.428Z,19.80
2018-08-30T20:18:19.935Z,19.80
2018-08-30T20:20:48.744Z,19.70
2018-08-30T20:23:17.578Z,19.80
2018-08-30T20:25:46.431Z,19.80
2018-08-30T20:28:16.014Z,19.80
2018-08-30T20:30:44.825Z,19.80
2018-08-30T20:33:13.702Z,19.80
2018-08-30T20:35:42.664Z,19.70
2018-08-30T20:38:11.595Z,19.70
2018-08-30T20:40:40.467Z,19.70
2018-08-30T20:43:09.331Z,19.70
2018-08-30T20:45:38.328Z,19.70
2018-08-30T20:48:07.379Z,19.70
2018-08-30T20:50:36.316Z,19.70
2018-08-30T20:53:05.819Z,19.70
2018-08-30T20:55:35.673Z,19.70
2018-08-30T20:58:05.865Z,19.70
2018-08-30T21:00:35.031Z,19.70
2018-08-30T21:03:04.081Z,19.60
2018-08-30T21:05:32.952Z,19.60
2018-08-30T21:08:02.693Z,19.60
2018-08-30T21:10:31.603Z,19.60
2018-08-30T21:13:00.436Z,19.60
2018-08-30T21:15:29.267Z,19.60
2018-08-30T21:17:58.126Z,19.60
2018-08-30T21:20:27.011Z,19.60
2018-08-30T21:22:55.840Z,19.60
2018-08-30T21:25:24.760Z,19.60
2018-08-30T21:27:53.698Z,19.60
2018-08-30T21:30:22.522Z,19.60
2018-08-30T21:32:51.354Z,19.60
2018-08-30T21:35:20.347Z,19.50
2018-08-30T21:37:49.260Z,19.50
2018-08-30T21:40:18.106Z,19.50
2018-08-30T21:42:46.994Z,19.50
2018-08-30T21:45:15.845Z,19.50
2018-08-30T21:47:44.707Z,19.50
2018-08-30T21:50:13.547Z,19.50
2018-08-30T21:52:42.404Z,19.50
2018-08-30T21:55:11.321Z,19.50
2018-08-30T21:57:40.193Z,19.50
2018-08-30T22:00:09.183Z,19.50
2018-08-30T22:02:38.075Z,19.50
2018-08-30T22:05:06.936Z,19.50
2018-08-30T22:07:35.830Z,19.40
2018-08-30T22:10:05.082Z,19.30
2018-08-30T22:12:33.947Z,19.30
2018-08-30T22:15:02.919Z,19.30
2018-08-30T22:17:31.934Z,19.30
2018-08-30T22:20:00.818Z,19.30
2018-08-30T22:22:29.638Z,19.30
2018-08-30T22:24:58.516Z,19.40
2018-08-30T22:27:27.411Z,19.30
2018-08-30T22:29:56.256Z,19.10
2018-08-30T22:32:25.095Z,19.10
2018-08-30T22:34:53.893Z,19.20
2018-08-30T22:37:22.728Z,19.20
2018-08-30T22:39:51.623Z,19.20
2018-08-30T22:42:20.429Z,19.20
2018-08-30T22:44:49.358Z,19.20
2018-08-30T22:47:18.195Z,19.30
2018-08-30T22:49:47.120Z,19.30
2018-08-30T22:52:15.977Z,19.30
2018-08-30T22:54:44.867Z,19.20
2018-08-30T22:57:13.768Z,19.20
2018-08-30T22:59:42.603Z,19.20
2018-08-30T23:02:11.495Z,19.30
2018-08-30T23:04:40.322Z,19.10
2018-08-30T23:07:09.220Z,18.80
2018-08-30T23:09:38.123Z,18.70
2018-08-30T23:12:07.275Z,18.80
2018-08-30T23:14:36.360Z,18.90
2018-08-30T23:17:05.276Z,19.00
2018-08-30T23:19:34.103Z,19.10
2018-08-30T23:22:02.998Z,19.10
2018-08-30T23:24:31.864Z,19.20
2018-08-30T23:27:00.755Z,19.20
2018-08-30T23:29:29.594Z,19.10
2018-08-30T23:31:58.486Z,19.10
2018-08-30T23:34:27.303Z,19.10
2018-08-30T23:36:56.135Z,19.10
2018-08-30T23:39:24.931Z,19.10
2018-08-30T23:41:53.765Z,19.10
2018-08-30T23:44:22.575Z,19.10
2018-08-30T23:46:51.472Z,19.10
2018-08-30T23:49:20.607Z,19.20
2018-08-30T23:51:49.465Z,19.20
2018-08-30T23:54:18.281Z,19.20
2018-08-30T23:56:47.256Z,19.10
2018-08-30T23:59:33.261Z,19.10
